sensor_id;sensor_type;location;lat;lon;timestamp;P1;durP1;ratioP1;P2;durP2;ratioP2
72621;SDS011;60665;53.506;9.582;2023-07-31T00:00:29;7.20;;;1.25;;
72621;SDS011;60665;53.506;9.582;2023-07-31T00:02:55;6.10;;;0.98;;
72621;SDS011;60665;53.506;9.582;2023-07-31T00:05:20;2.67;;;1.02;;
72621;SDS011;60665;53.506;9.582;2023-07-31T00:07:46;3.25;;;0.80;;
72621;SDS011;60665;53.506;9.582;2023-07-31T00:10:11;4.15;;;1.13;;
72621;SDS011;60665;53.506;9.582;2023-07-31T00:12:38;3.28;;;0.90;;
72621;SDS011;60665;53.506;9.582;2023-07-31T00:15:04;4.68;;;0.98;;
72621;SDS011;60665;53.506;9.582;2023-07-31T00:17:30;6.20;;;1.30;;
72621;SDS011;60665;53.506;9.582;2023-07-31T00:19:56;4.03;;;1.00;;
72621;SDS011;60665;53.506;9.582;2023-07-31T00:22:22;5.53;;;1.20;;
72621;SDS011;60665;53.506;9.582;2023-07-31T00:24:47;5.63;;;1.00;;
72621;SDS011;60665;53.506;9.582;2023-07-31T00:27:12;6.38;;;0.98;;
72621;SDS011;60665;53.506;9.582;2023-07-31T00:29:38;5.63;;;1.23;;
72621;SDS011;60665;53.506;9.582;2023-07-31T00:32:03;4.38;;;1.08;;
72621;SDS011;60665;53.506;9.582;2023-07-31T00:34:29;9.02;;;1.42;;
72621;SDS011;60665;53.506;9.582;2023-07-31T00:36:54;4.20;;;1.10;;
72621;SDS011;60665;53.506;9.582;2023-07-31T00:39:20;5.22;;;0.90;;
72621;SDS011;60665;53.506;9.582;2023-07-31T00:41:45;2.85;;;0.82;;
72621;SDS011;60665;53.506;9.582;2023-07-31T00:44:11;5.20;;;1.17;;
72621;SDS011;60665;53.506;9.582;2023-07-31T00:46:36;3.45;;;0.98;;
72621;SDS011;60665;53.506;9.582;2023-07-31T00:49:02;4.30;;;1.00;;
72621;SDS011;60665;53.506;9.582;2023-07-31T00:51:27;5.93;;;1.50;;
72621;SDS011;60665;53.506;9.582;2023-07-31T00:53:53;3.80;;;0.93;;
72621;SDS011;60665;53.506;9.582;2023-07-31T00:56:19;3.30;;;1.13;;
72621;SDS011;60665;53.506;9.582;2023-07-31T00:58:44;5.13;;;1.45;;
72621;SDS011;60665;53.506;9.582;2023-07-31T01:01:10;3.92;;;1.02;;
72621;SDS011;60665;53.506;9.582;2023-07-31T01:03:35;3.90;;;1.20;;
72621;SDS011;60665;53.506;9.582;2023-07-31T01:11:34;4.10;;;1.30;;
72621;SDS011;60665;53.506;9.582;2023-07-31T01:14:02;4.57;;;1.00;;
72621;SDS011;60665;53.506;9.582;2023-07-31T01:16:28;6.68;;;1.38;;
72621;SDS011;60665;53.506;9.582;2023-07-31T01:18:53;4.80;;;1.35;;
72621;SDS011;60665;53.506;9.582;2023-07-31T01:24:30;3.58;;;1.27;;
72621;SDS011;60665;53.506;9.582;2023-07-31T01:27:17;5.05;;;1.08;;
72621;SDS011;60665;53.506;9.582;2023-07-31T01:29:48;8.40;;;1.60;;
72621;SDS011;60665;53.506;9.582;2023-07-31T01:32:17;4.72;;;1.10;;
72621;SDS011;60665;53.506;9.582;2023-07-31T01:34:43;4.57;;;1.40;;
72621;SDS011;60665;53.506;9.582;2023-07-31T01:37:09;6.05;;;1.65;;
72621;SDS011;60665;53.506;9.582;2023-07-31T01:39:34;13.55;;;1.65;;
72621;SDS011;60665;53.506;9.582;2023-07-31T01:42:00;8.93;;;1.63;;
72621;SDS011;60665;53.506;9.582;2023-07-31T01:44:25;5.53;;;1.17;;
72621;SDS011;60665;53.506;9.582;2023-07-31T01:46:50;7.57;;;1.50;;
72621;SDS011;60665;53.506;9.582;2023-07-31T01:49:16;5.97;;;1.30;;
72621;SDS011;60665;53.506;9.582;2023-07-31T01:51:41;3.50;;;1.20;;
72621;SDS011;60665;53.506;9.582;2023-07-31T01:54:07;3.80;;;1.30;;
72621;SDS011;60665;53.506;9.582;2023-07-31T01:56:32;7.50;;;1.60;;
72621;SDS011;60665;53.506;9.582;2023-07-31T01:58:57;5.32;;;1.23;;
72621;SDS011;60665;53.506;9.582;2023-07-31T02:01:23;4.43;;;1.70;;
72621;SDS011;60665;53.506;9.582;2023-07-31T02:03:48;6.75;;;1.50;;
72621;SDS011;60665;53.506;9.582;2023-07-31T02:06:13;3.85;;;1.33;;
72621;SDS011;60665;53.506;9.582;2023-07-31T02:08:39;4.97;;;1.52;;
72621;SDS011;60665;53.506;9.582;2023-07-31T02:11:04;4.97;;;1.48;;
72621;SDS011;60665;53.506;9.582;2023-07-31T02:13:30;7.88;;;1.83;;
72621;SDS011;60665;53.506;9.582;2023-07-31T02:15:55;5.43;;;1.50;;
72621;SDS011;60665;53.506;9.582;2023-07-31T02:18:20;3.70;;;1.45;;
72621;SDS011;60665;53.506;9.582;2023-07-31T02:20:50;6.07;;;1.35;;
72621;SDS011;60665;53.506;9.582;2023-07-31T02:23:16;6.25;;;1.60;;
72621;SDS011;60665;53.506;9.582;2023-07-31T02:25:43;4.50;;;1.52;;
72621;SDS011;60665;53.506;9.582;2023-07-31T02:28:08;6.15;;;1.50;;
72621;SDS011;60665;53.506;9.582;2023-07-31T02:30:33;5.13;;;1.60;;
72621;SDS011;60665;53.506;9.582;2023-07-31T02:32:59;4.40;;;1.48;;
72621;SDS011;60665;53.506;9.582;2023-07-31T02:35:24;7.10;;;2.00;;
72621;SDS011;60665;53.506;9.582;2023-07-31T02:37:50;4.35;;;1.40;;
72621;SDS011;60665;53.506;9.582;2023-07-31T02:40:15;4.50;;;1.52;;
72621;SDS011;60665;53.506;9.582;2023-07-31T02:42:40;5.13;;;1.55;;
72621;SDS011;60665;53.506;9.582;2023-07-31T02:45:06;3.67;;;1.70;;
72621;SDS011;60665;53.506;9.582;2023-07-31T02:47:32;5.13;;;1.58;;
72621;SDS011;60665;53.506;9.582;2023-07-31T02:49:57;6.25;;;1.60;;
72621;SDS011;60665;53.506;9.582;2023-07-31T02:52:24;4.22;;;1.40;;
72621;SDS011;60665;53.506;9.582;2023-07-31T02:54:49;4.43;;;1.30;;
72621;SDS011;60665;53.506;9.582;2023-07-31T02:57:15;4.45;;;1.40;;
72621;SDS011;60665;53.506;9.582;2023-07-31T02:59:41;5.40;;;1.38;;
72621;SDS011;60665;53.506;9.582;2023-07-31T03:02:06;8.02;;;1.42;;
72621;SDS011;60665;53.506;9.582;2023-07-31T03:04:32;4.47;;;1.70;;
72621;SDS011;60665;53.506;9.582;2023-07-31T03:06:57;3.33;;;1.48;;
72621;SDS011;60665;53.506;9.582;2023-07-31T03:09:22;5.32;;;1.80;;
72621;SDS011;60665;53.506;9.582;2023-07-31T03:11:48;4.50;;;1.52;;
72621;SDS011;60665;53.506;9.582;2023-07-31T03:14:13;6.70;;;1.75;;
72621;SDS011;60665;53.506;9.582;2023-07-31T03:16:38;4.55;;;1.33;;
72621;SDS011;60665;53.506;9.582;2023-07-31T03:19:04;5.40;;;1.85;;
72621;SDS011;60665;53.506;9.582;2023-07-31T03:21:29;4.55;;;1.40;;
72621;SDS011;60665;53.506;9.582;2023-07-31T03:23:54;4.65;;;1.40;;
72621;SDS011;60665;53.506;9.582;2023-07-31T03:26:20;4.05;;;1.55;;
72621;SDS011;60665;53.506;9.582;2023-07-31T03:28:45;4.53;;;1.38;;
72621;SDS011;60665;53.506;9.582;2023-07-31T03:31:11;4.03;;;1.50;;
72621;SDS011;60665;53.506;9.582;2023-07-31T03:33:36;5.65;;;1.65;;
72621;SDS011;60665;53.506;9.582;2023-07-31T03:36:02;6.57;;;2.00;;
72621;SDS011;60665;53.506;9.582;2023-07-31T03:38:27;3.47;;;1.50;;
72621;SDS011;60665;53.506;9.582;2023-07-31T03:40:52;3.25;;;1.40;;
72621;SDS011;60665;53.506;9.582;2023-07-31T03:43:18;4.50;;;1.50;;
72621;SDS011;60665;53.506;9.582;2023-07-31T03:45:43;3.80;;;1.20;;
72621;SDS011;60665;53.506;9.582;2023-07-31T03:48:09;5.32;;;1.50;;
72621;SDS011;60665;53.506;9.582;2023-07-31T03:50:34;4.90;;;1.40;;
72621;SDS011;60665;53.506;9.582;2023-07-31T03:53:00;5.20;;;1.30;;
72621;SDS011;60665;53.506;9.582;2023-07-31T03:55:25;5.80;;;1.27;;
72621;SDS011;60665;53.506;9.582;2023-07-31T03:57:50;3.50;;;1.30;;
72621;SDS011;60665;53.506;9.582;2023-07-31T04:00:16;8.00;;;1.50;;
72621;SDS011;60665;53.506;9.582;2023-07-31T04:02:41;5.65;;;1.50;;
72621;SDS011;60665;53.506;9.582;2023-07-31T04:05:07;3.03;;;1.38;;
72621;SDS011;60665;53.506;9.582;2023-07-31T04:07:32;3.53;;;1.33;;
72621;SDS011;60665;53.506;9.582;2023-07-31T04:09:59;3.72;;;1.40;;
72621;SDS011;60665;53.506;9.582;2023-07-31T04:12:25;5.10;;;1.60;;
72621;SDS011;60665;53.506;9.582;2023-07-31T04:14:50;4.35;;;1.58;;
72621;SDS011;60665;53.506;9.582;2023-07-31T04:17:17;3.72;;;1.45;;
72621;SDS011;60665;53.506;9.582;2023-07-31T04:19:42;4.55;;;1.30;;
72621;SDS011;60665;53.506;9.582;2023-07-31T04:22:08;4.80;;;1.42;;
72621;SDS011;60665;53.506;9.582;2023-07-31T04:24:33;3.45;;;1.55;;
72621;SDS011;60665;53.506;9.582;2023-07-31T04:26:59;3.97;;;1.50;;
72621;SDS011;60665;53.506;9.582;2023-07-31T04:29:24;3.17;;;1.42;;
72621;SDS011;60665;53.506;9.582;2023-07-31T04:31:49;3.20;;;1.38;;
72621;SDS011;60665;53.506;9.582;2023-07-31T04:34:15;3.50;;;1.40;;
72621;SDS011;60665;53.506;9.582;2023-07-31T04:36:40;3.78;;;1.30;;
72621;SDS011;60665;53.506;9.582;2023-07-31T04:39:05;3.53;;;1.40;;
72621;SDS011;60665;53.506;9.582;2023-07-31T04:41:31;7.88;;;1.50;;
72621;SDS011;60665;53.506;9.582;2023-07-31T04:43:56;3.67;;;1.55;;
72621;SDS011;60665;53.506;9.582;2023-07-31T04:46:22;4.05;;;1.30;;
72621;SDS011;60665;53.506;9.582;2023-07-31T04:48:47;3.40;;;1.52;;
72621;SDS011;60665;53.506;9.582;2023-07-31T04:51:13;3.92;;;1.38;;
72621;SDS011;60665;53.506;9.582;2023-07-31T04:53:38;4.72;;;1.30;;
72621;SDS011;60665;53.506;9.582;2023-07-31T04:56:04;2.90;;;1.10;;
72621;SDS011;60665;53.506;9.582;2023-07-31T04:58:29;2.83;;;1.10;;
72621;SDS011;60665;53.506;9.582;2023-07-31T05:00:54;3.45;;;1.25;;
72621;SDS011;60665;53.506;9.582;2023-07-31T05:03:20;2.95;;;1.10;;
72621;SDS011;60665;53.506;9.582;2023-07-31T05:05:45;2.58;;;1.05;;
72621;SDS011;60665;53.506;9.582;2023-07-31T05:08:10;3.72;;;1.20;;
72621;SDS011;60665;53.506;9.582;2023-07-31T05:10:36;3.17;;;1.40;;
72621;SDS011;60665;53.506;9.582;2023-07-31T05:13:01;3.30;;;1.30;;
72621;SDS011;60665;53.506;9.582;2023-07-31T05:15:27;2.72;;;0.98;;
72621;SDS011;60665;53.506;9.582;2023-07-31T05:17:53;4.18;;;1.20;;
72621;SDS011;60665;53.506;9.582;2023-07-31T05:20:19;3.00;;;1.20;;
72621;SDS011;60665;53.506;9.582;2023-07-31T05:22:44;3.25;;;1.23;;
72621;SDS011;60665;53.506;9.582;2023-07-31T05:25:09;4.38;;;1.50;;
72621;SDS011;60665;53.506;9.582;2023-07-31T05:27:35;4.78;;;1.08;;
72621;SDS011;60665;53.506;9.582;2023-07-31T05:30:03;2.58;;;1.02;;
72621;SDS011;60665;53.506;9.582;2023-07-31T05:32:30;4.15;;;1.50;;
72621;SDS011;60665;53.506;9.582;2023-07-31T05:34:55;3.00;;;1.30;;
72621;SDS011;60665;53.506;9.582;2023-07-31T05:37:21;5.47;;;1.30;;
72621;SDS011;60665;53.506;9.582;2023-07-31T05:39:47;3.00;;;1.13;;
72621;SDS011;60665;53.506;9.582;2023-07-31T05:42:12;3.10;;;1.20;;
72621;SDS011;60665;53.506;9.582;2023-07-31T05:44:37;2.65;;;1.10;;
72621;SDS011;60665;53.506;9.582;2023-07-31T05:47:03;2.60;;;1.13;;
72621;SDS011;60665;53.506;9.582;2023-07-31T05:49:28;2.92;;;1.15;;
72621;SDS011;60665;53.506;9.582;2023-07-31T05:51:54;2.55;;;1.05;;
72621;SDS011;60665;53.506;9.582;2023-07-31T05:54:19;3.20;;;1.38;;
72621;SDS011;60665;53.506;9.582;2023-07-31T05:56:45;2.38;;;1.00;;
72621;SDS011;60665;53.506;9.582;2023-07-31T05:59:11;2.80;;;1.00;;
72621;SDS011;60665;53.506;9.582;2023-07-31T06:01:37;3.20;;;1.33;;
72621;SDS011;60665;53.506;9.582;2023-07-31T06:04:02;2.38;;;0.95;;
72621;SDS011;60665;53.506;9.582;2023-07-31T06:06:28;2.67;;;0.90;;
72621;SDS011;60665;53.506;9.582;2023-07-31T06:08:53;2.88;;;1.20;;
72621;SDS011;60665;53.506;9.582;2023-07-31T06:11:19;3.63;;;1.17;;
72621;SDS011;60665;53.506;9.582;2023-07-31T06:13:45;2.80;;;1.17;;
72621;SDS011;60665;53.506;9.582;2023-07-31T06:16:13;3.83;;;1.25;;
72621;SDS011;60665;53.506;9.582;2023-07-31T06:18:38;3.70;;;1.10;;
72621;SDS011;60665;53.506;9.582;2023-07-31T06:21:03;2.92;;;1.17;;
72621;SDS011;60665;53.506;9.582;2023-07-31T06:23:29;3.22;;;1.10;;
72621;SDS011;60665;53.506;9.582;2023-07-31T06:25:54;3.05;;;1.10;;
72621;SDS011;60665;53.506;9.582;2023-07-31T06:28:20;2.75;;;1.15;;
72621;SDS011;60665;53.506;9.582;2023-07-31T06:30:45;2.45;;;0.90;;
72621;SDS011;60665;53.506;9.582;2023-07-31T06:33:10;2.30;;;0.93;;
72621;SDS011;60665;53.506;9.582;2023-07-31T06:35:36;2.85;;;1.00;;
72621;SDS011;60665;53.506;9.582;2023-07-31T06:38:01;2.25;;;1.00;;
72621;SDS011;60665;53.506;9.582;2023-07-31T06:40:27;2.65;;;1.00;;
72621;SDS011;60665;53.506;9.582;2023-07-31T06:42:53;2.72;;;1.00;;
72621;SDS011;60665;53.506;9.582;2023-07-31T06:45:18;3.10;;;1.38;;
72621;SDS011;60665;53.506;9.582;2023-07-31T06:47:43;2.63;;;1.13;;
72621;SDS011;60665;53.506;9.582;2023-07-31T06:50:12;2.85;;;1.20;;
72621;SDS011;60665;53.506;9.582;2023-07-31T06:52:37;2.65;;;1.17;;
72621;SDS011;60665;53.506;9.582;2023-07-31T06:55:04;3.78;;;1.33;;
72621;SDS011;60665;53.506;9.582;2023-07-31T06:57:44;7.25;;;1.27;;
72621;SDS011;60665;53.506;9.582;2023-07-31T07:02:38;3.08;;;1.10;;
72621;SDS011;60665;53.506;9.582;2023-07-31T07:05:03;2.55;;;1.10;;
72621;SDS011;60665;53.506;9.582;2023-07-31T07:07:29;3.00;;;1.20;;
72621;SDS011;60665;53.506;9.582;2023-07-31T07:09:54;2.63;;;1.13;;
72621;SDS011;60665;53.506;9.582;2023-07-31T07:12:19;3.53;;;1.40;;
72621;SDS011;60665;53.506;9.582;2023-07-31T07:14:45;3.03;;;1.10;;
72621;SDS011;60665;53.506;9.582;2023-07-31T07:17:13;3.47;;;1.40;;
72621;SDS011;60665;53.506;9.582;2023-07-31T07:19:41;2.47;;;1.10;;
72621;SDS011;60665;53.506;9.582;2023-07-31T07:22:07;2.67;;;1.08;;
72621;SDS011;60665;53.506;9.582;2023-07-31T07:24:32;2.80;;;1.00;;
72621;SDS011;60665;53.506;9.582;2023-07-31T07:26:58;2.83;;;1.10;;
72621;SDS011;60665;53.506;9.582;2023-07-31T07:29:23;2.28;;;1.00;;
72621;SDS011;60665;53.506;9.582;2023-07-31T07:31:48;2.47;;;1.00;;
72621;SDS011;60665;53.506;9.582;2023-07-31T07:34:14;3.22;;;0.95;;
72621;SDS011;60665;53.506;9.582;2023-07-31T07:36:39;2.17;;;0.90;;
72621;SDS011;60665;53.506;9.582;2023-07-31T07:39:04;2.38;;;1.02;;
72621;SDS011;60665;53.506;9.582;2023-07-31T07:41:30;2.78;;;1.00;;
72621;SDS011;60665;53.506;9.582;2023-07-31T07:43:55;2.63;;;0.93;;
72621;SDS011;60665;53.506;9.582;2023-07-31T07:46:21;1.60;;;0.70;;
72621;SDS011;60665;53.506;9.582;2023-07-31T07:48:49;2.25;;;0.80;;
72621;SDS011;60665;53.506;9.582;2023-07-31T07:51:14;2.88;;;0.77;;
72621;SDS011;60665;53.506;9.582;2023-07-31T07:53:40;1.60;;;0.70;;
72621;SDS011;60665;53.506;9.582;2023-07-31T07:56:05;0.95;;;0.50;;
72621;SDS011;60665;53.506;9.582;2023-07-31T07:58:31;1.35;;;0.70;;
72621;SDS011;60665;53.506;9.582;2023-07-31T08:00:56;1.60;;;0.70;;
72621;SDS011;60665;53.506;9.582;2023-07-31T08:03:21;1.40;;;0.63;;
72621;SDS011;60665;53.506;9.582;2023-07-31T08:05:49;1.77;;;0.65;;
72621;SDS011;60665;53.506;9.582;2023-07-31T08:08:15;1.98;;;0.60;;
72621;SDS011;60665;53.506;9.582;2023-07-31T08:10:41;1.88;;;0.88;;
72621;SDS011;60665;53.506;9.582;2023-07-31T08:13:07;1.73;;;0.60;;
72621;SDS011;60665;53.506;9.582;2023-07-31T08:15:32;1.35;;;0.60;;
72621;SDS011;60665;53.506;9.582;2023-07-31T08:17:58;1.73;;;0.60;;
72621;SDS011;60665;53.506;9.582;2023-07-31T08:20:23;2.05;;;0.68;;
72621;SDS011;60665;53.506;9.582;2023-07-31T08:22:48;1.42;;;0.50;;
72621;SDS011;60665;53.506;9.582;2023-07-31T08:25:14;1.55;;;0.70;;
72621;SDS011;60665;53.506;9.582;2023-07-31T08:27:42;1.77;;;0.60;;
72621;SDS011;60665;53.506;9.582;2023-07-31T08:30:08;2.28;;;0.73;;
72621;SDS011;60665;53.506;9.582;2023-07-31T08:32:34;3.38;;;0.73;;
72621;SDS011;60665;53.506;9.582;2023-07-31T08:34:59;1.60;;;0.70;;
72621;SDS011;60665;53.506;9.582;2023-07-31T08:37:25;2.05;;;0.60;;
72621;SDS011;60665;53.506;9.582;2023-07-31T08:39:50;2.03;;;0.43;;
72621;SDS011;60665;53.506;9.582;2023-07-31T08:42:16;1.23;;;0.43;;
72621;SDS011;60665;53.506;9.582;2023-07-31T08:44:41;1.13;;;0.50;;
72621;SDS011;60665;53.506;9.582;2023-07-31T08:47:08;1.02;;;0.57;;
72621;SDS011;60665;53.506;9.582;2023-07-31T08:49:34;1.08;;;0.50;;
72621;SDS011;60665;53.506;9.582;2023-07-31T08:52:00;1.73;;;0.65;;
72621;SDS011;60665;53.506;9.582;2023-07-31T08:54:25;1.85;;;0.60;;
72621;SDS011;60665;53.506;9.582;2023-07-31T08:56:54;2.28;;;0.63;;
72621;SDS011;60665;53.506;9.582;2023-07-31T08:59:19;2.22;;;0.70;;
72621;SDS011;60665;53.506;9.582;2023-07-31T09:01:47;1.67;;;0.50;;
72621;SDS011;60665;53.506;9.582;2023-07-31T09:04:16;0.90;;;0.40;;
72621;SDS011;60665;53.506;9.582;2023-07-31T09:06:42;1.98;;;0.75;;
72621;SDS011;60665;53.506;9.582;2023-07-31T09:09:07;0.73;;;0.40;;
72621;SDS011;60665;53.506;9.582;2023-07-31T09:11:34;1.25;;;0.50;;
72621;SDS011;60665;53.506;9.582;2023-07-31T09:13:59;1.75;;;0.60;;
72621;SDS011;60665;53.506;9.582;2023-07-31T09:16:27;1.52;;;0.50;;
72621;SDS011;60665;53.506;9.582;2023-07-31T09:18:56;0.88;;;0.45;;
72621;SDS011;60665;53.506;9.582;2023-07-31T09:21:22;1.05;;;0.50;;
72621;SDS011;60665;53.506;9.582;2023-07-31T09:23:48;1.70;;;0.60;;
72621;SDS011;60665;53.506;9.582;2023-07-31T09:26:32;0.85;;;0.40;;
72621;SDS011;60665;53.506;9.582;2023-07-31T09:29:03;0.77;;;0.40;;
72621;SDS011;60665;53.506;9.582;2023-07-31T09:34:06;1.42;;;0.52;;
72621;SDS011;60665;53.506;9.582;2023-07-31T09:36:31;0.85;;;0.35;;
72621;SDS011;60665;53.506;9.582;2023-07-31T09:39:03;1.33;;;0.50;;
72621;SDS011;60665;53.506;9.582;2023-07-31T09:41:29;0.30;;;0.30;;
72621;SDS011;60665;53.506;9.582;2023-07-31T09:44:01;0.55;;;0.30;;
72621;SDS011;60665;53.506;9.582;2023-07-31T09:46:26;1.23;;;0.40;;
72621;SDS011;60665;53.506;9.582;2023-07-31T09:48:52;3.08;;;0.50;;
72621;SDS011;60665;53.506;9.582;2023-07-31T09:51:17;1.23;;;0.70;;
72621;SDS011;60665;53.506;9.582;2023-07-31T09:53:51;0.68;;;0.30;;
72621;SDS011;60665;53.506;9.582;2023-07-31T09:56:17;0.90;;;0.40;;
72621;SDS011;60665;53.506;9.582;2023-07-31T09:58:43;0.65;;;0.30;;
72621;SDS011;60665;53.506;9.582;2023-07-31T10:01:09;0.57;;;0.30;;
72621;SDS011;60665;53.506;9.582;2023-07-31T10:03:34;1.23;;;0.38;;
72621;SDS011;60665;53.506;9.582;2023-07-31T10:06:00;0.77;;;0.38;;
72621;SDS011;60665;53.506;9.582;2023-07-31T10:08:30;1.17;;;0.40;;
72621;SDS011;60665;53.506;9.582;2023-07-31T10:10:58;0.55;;;0.32;;
72621;SDS011;60665;53.506;9.582;2023-07-31T10:13:24;0.60;;;0.30;;
72621;SDS011;60665;53.506;9.582;2023-07-31T10:15:50;1.05;;;0.30;;
72621;SDS011;60665;53.506;9.582;2023-07-31T10:18:16;1.35;;;0.40;;
72621;SDS011;60665;53.506;9.582;2023-07-31T10:20:43;0.65;;;0.30;;
72621;SDS011;60665;53.506;9.582;2023-07-31T10:23:09;0.50;;;0.30;;
72621;SDS011;60665;53.506;9.582;2023-07-31T10:25:35;0.22;;;0.20;;
72621;SDS011;60665;53.506;9.582;2023-07-31T10:28:02;1.10;;;0.40;;
72621;SDS011;60665;53.506;9.582;2023-07-31T10:30:29;0.55;;;0.30;;
72621;SDS011;60665;53.506;9.582;2023-07-31T10:32:56;3.35;;;1.02;;
72621;SDS011;60665;53.506;9.582;2023-07-31T10:35:22;4.47;;;1.45;;
72621;SDS011;60665;53.506;9.582;2023-07-31T10:37:47;4.07;;;1.52;;
72621;SDS011;60665;53.506;9.582;2023-07-31T10:40:26;4.72;;;2.00;;
72621;SDS011;60665;53.506;9.582;2023-07-31T10:42:53;5.53;;;1.83;;
72621;SDS011;60665;53.506;9.582;2023-07-31T10:45:26;6.90;;;2.22;;
72621;SDS011;60665;53.506;9.582;2023-07-31T10:48:00;6.80;;;3.00;;
72621;SDS011;60665;53.506;9.582;2023-07-31T10:50:27;7.82;;;2.83;;
72621;SDS011;60665;53.506;9.582;2023-07-31T10:52:55;7.80;;;3.00;;
72621;SDS011;60665;53.506;9.582;2023-07-31T10:55:26;6.90;;;3.15;;
72621;SDS011;60665;53.506;9.582;2023-07-31T10:57:52;6.05;;;3.03;;
72621;SDS011;60665;53.506;9.582;2023-07-31T11:00:22;7.13;;;3.05;;
72621;SDS011;60665;53.506;9.582;2023-07-31T11:03:13;5.38;;;2.45;;
72621;SDS011;60665;53.506;9.582;2023-07-31T11:08:26;5.55;;;2.13;;
72621;SDS011;60665;53.506;9.582;2023-07-31T11:13:31;6.55;;;2.15;;
72621;SDS011;60665;53.506;9.582;2023-07-31T11:16:22;5.47;;;2.10;;
72621;SDS011;60665;53.506;9.582;2023-07-31T11:18:49;5.35;;;1.80;;
72621;SDS011;60665;53.506;9.582;2023-07-31T11:21:21;5.90;;;2.03;;
72621;SDS011;60665;53.506;9.582;2023-07-31T11:23:49;4.05;;;1.80;;
72621;SDS011;60665;53.506;9.582;2023-07-31T11:26:16;5.97;;;2.00;;
72621;SDS011;60665;53.506;9.582;2023-07-31T11:28:41;4.57;;;1.90;;
72621;SDS011;60665;53.506;9.582;2023-07-31T11:31:10;3.85;;;1.70;;
72621;SDS011;60665;53.506;9.582;2023-07-31T11:33:35;4.45;;;1.80;;
72621;SDS011;60665;53.506;9.582;2023-07-31T11:36:01;4.45;;;1.70;;
72621;SDS011;60665;53.506;9.582;2023-07-31T11:40:59;5.50;;;1.95;;
72621;SDS011;60665;53.506;9.582;2023-07-31T11:43:27;3.55;;;1.45;;
72621;SDS011;60665;53.506;9.582;2023-07-31T11:45:54;4.93;;;1.90;;
72621;SDS011;60665;53.506;9.582;2023-07-31T11:50:47;5.47;;;1.70;;
72621;SDS011;60665;53.506;9.582;2023-07-31T11:53:14;4.57;;;1.75;;
72621;SDS011;60665;53.506;9.582;2023-07-31T11:55:41;5.22;;;1.70;;
72621;SDS011;60665;53.506;9.582;2023-07-31T11:58:07;4.78;;;1.67;;
72621;SDS011;60665;53.506;9.582;2023-07-31T12:00:33;4.53;;;1.60;;
72621;SDS011;60665;53.506;9.582;2023-07-31T12:02:58;4.18;;;1.45;;
72621;SDS011;60665;53.506;9.582;2023-07-31T12:05:23;3.28;;;1.30;;
72621;SDS011;60665;53.506;9.582;2023-07-31T12:07:52;4.78;;;1.40;;
72621;SDS011;60665;53.506;9.582;2023-07-31T12:10:28;3.30;;;1.10;;
72621;SDS011;60665;53.506;9.582;2023-07-31T12:12:59;3.90;;;1.60;;
72621;SDS011;60665;53.506;9.582;2023-07-31T12:15:32;2.97;;;1.25;;
72621;SDS011;60665;53.506;9.582;2023-07-31T12:17:58;3.20;;;1.20;;
72621;SDS011;60665;53.506;9.582;2023-07-31T12:20:24;2.97;;;1.30;;
72621;SDS011;60665;53.506;9.582;2023-07-31T12:22:49;3.33;;;1.20;;
72621;SDS011;60665;53.506;9.582;2023-07-31T12:25:15;2.58;;;1.00;;
72621;SDS011;60665;53.506;9.582;2023-07-31T12:27:44;2.55;;;1.20;;
72621;SDS011;60665;53.506;9.582;2023-07-31T12:30:56;2.88;;;1.17;;
72621;SDS011;60665;53.506;9.582;2023-07-31T12:33:12;2.75;;;1.20;;
72621;SDS011;60665;53.506;9.582;2023-07-31T12:35:43;2.97;;;0.95;;
72621;SDS011;60665;53.506;9.582;2023-07-31T12:38:10;3.08;;;1.08;;
72621;SDS011;60665;53.506;9.582;2023-07-31T12:40:38;2.80;;;1.00;;
72621;SDS011;60665;53.506;9.582;2023-07-31T12:43:05;3.03;;;0.93;;
72621;SDS011;60665;53.506;9.582;2023-07-31T12:45:31;2.03;;;0.82;;
72621;SDS011;60665;53.506;9.582;2023-07-31T12:47:57;3.13;;;1.10;;
72621;SDS011;60665;53.506;9.582;2023-07-31T12:50:25;2.75;;;1.00;;
72621;SDS011;60665;53.506;9.582;2023-07-31T12:52:51;2.33;;;0.90;;
72621;SDS011;60665;53.506;9.582;2023-07-31T12:55:18;3.20;;;1.00;;
72621;SDS011;60665;53.506;9.582;2023-07-31T12:57:44;2.72;;;1.02;;
72621;SDS011;60665;53.506;9.582;2023-07-31T13:00:09;2.55;;;1.00;;
72621;SDS011;60665;53.506;9.582;2023-07-31T13:02:35;2.75;;;0.90;;
72621;SDS011;60665;53.506;9.582;2023-07-31T13:05:01;2.90;;;0.90;;
72621;SDS011;60665;53.506;9.582;2023-07-31T13:07:26;1.77;;;0.70;;
72621;SDS011;60665;53.506;9.582;2023-07-31T13:09:51;2.17;;;0.90;;
72621;SDS011;60665;53.506;9.582;2023-07-31T13:12:17;2.30;;;0.80;;
72621;SDS011;60665;53.506;9.582;2023-07-31T13:14:43;1.98;;;0.70;;
72621;SDS011;60665;53.506;9.582;2023-07-31T13:17:08;1.73;;;0.75;;
72621;SDS011;60665;53.506;9.582;2023-07-31T13:19:34;2.00;;;0.70;;
72621;SDS011;60665;53.506;9.582;2023-07-31T13:21:59;1.05;;;0.60;;
72621;SDS011;60665;53.506;9.582;2023-07-31T13:24:25;2.65;;;0.60;;
72621;SDS011;60665;53.506;9.582;2023-07-31T13:26:50;1.27;;;0.70;;
72621;SDS011;60665;53.506;9.582;2023-07-31T13:29:16;1.38;;;0.60;;
72621;SDS011;60665;53.506;9.582;2023-07-31T13:31:41;1.70;;;0.60;;
72621;SDS011;60665;53.506;9.582;2023-07-31T13:34:06;1.63;;;0.50;;
72621;SDS011;60665;53.506;9.582;2023-07-31T13:36:32;1.67;;;0.65;;
72621;SDS011;60665;53.506;9.582;2023-07-31T13:38:59;1.63;;;0.75;;
72621;SDS011;60665;53.506;9.582;2023-07-31T13:41:25;1.48;;;0.60;;
72621;SDS011;60665;53.506;9.582;2023-07-31T13:43:50;0.63;;;0.40;;
72621;SDS011;60665;53.506;9.582;2023-07-31T13:46:16;1.75;;;0.60;;
72621;SDS011;60665;53.506;9.582;2023-07-31T13:48:41;2.72;;;0.60;;
72621;SDS011;60665;53.506;9.582;2023-07-31T13:51:06;1.00;;;0.40;;
72621;SDS011;60665;53.506;9.582;2023-07-31T13:53:32;0.70;;;0.30;;
72621;SDS011;60665;53.506;9.582;2023-07-31T13:55:57;1.33;;;0.40;;
72621;SDS011;60665;53.506;9.582;2023-07-31T13:58:23;0.65;;;0.45;;
72621;SDS011;60665;53.506;9.582;2023-07-31T14:00:48;0.93;;;0.35;;
72621;SDS011;60665;53.506;9.582;2023-07-31T14:03:13;0.77;;;0.45;;
72621;SDS011;60665;53.506;9.582;2023-07-31T14:05:39;1.00;;;0.40;;
72621;SDS011;60665;53.506;9.582;2023-07-31T14:08:04;1.02;;;0.40;;
72621;SDS011;60665;53.506;9.582;2023-07-31T14:10:30;5.10;;;0.50;;
72621;SDS011;60665;53.506;9.582;2023-07-31T14:12:55;0.63;;;0.40;;
72621;SDS011;60665;53.506;9.582;2023-07-31T14:15:20;1.35;;;0.47;;
72621;SDS011;60665;53.506;9.582;2023-07-31T14:17:46;0.63;;;0.40;;
72621;SDS011;60665;53.506;9.582;2023-07-31T14:20:11;0.80;;;0.43;;
72621;SDS011;60665;53.506;9.582;2023-07-31T14:22:37;1.27;;;0.47;;
72621;SDS011;60665;53.506;9.582;2023-07-31T14:25:03;0.93;;;0.47;;
72621;SDS011;60665;53.506;9.582;2023-07-31T14:27:29;1.40;;;0.63;;
72621;SDS011;60665;53.506;9.582;2023-07-31T14:29:54;1.25;;;0.55;;
72621;SDS011;60665;53.506;9.582;2023-07-31T14:32:20;1.40;;;0.60;;
72621;SDS011;60665;53.506;9.582;2023-07-31T14:34:46;1.80;;;0.70;;
72621;SDS011;60665;53.506;9.582;2023-07-31T14:37:12;1.73;;;0.70;;
72621;SDS011;60665;53.506;9.582;2023-07-31T14:39:37;2.53;;;0.90;;
72621;SDS011;60665;53.506;9.582;2023-07-31T14:42:02;1.85;;;0.80;;
72621;SDS011;60665;53.506;9.582;2023-07-31T14:44:28;1.70;;;0.70;;
72621;SDS011;60665;53.506;9.582;2023-07-31T14:46:53;1.88;;;0.70;;
72621;SDS011;60665;53.506;9.582;2023-07-31T14:49:19;2.30;;;0.82;;
72621;SDS011;60665;53.506;9.582;2023-07-31T14:51:45;2.05;;;0.80;;
72621;SDS011;60665;53.506;9.582;2023-07-31T14:54:10;2.72;;;0.80;;
72621;SDS011;60665;53.506;9.582;2023-07-31T14:56:35;1.83;;;0.75;;
72621;SDS011;60665;53.506;9.582;2023-07-31T14:59:01;1.88;;;0.88;;
72621;SDS011;60665;53.506;9.582;2023-07-31T15:01:26;1.90;;;0.80;;
72621;SDS011;60665;53.506;9.582;2023-07-31T15:03:52;2.10;;;0.80;;
72621;SDS011;60665;53.506;9.582;2023-07-31T15:06:17;2.67;;;0.70;;